LOT4TC EPKK-EDDK
Flight info
| Callsign | LOT4TC |
|---|---|
| Flight time | 1h 20m |
| Altitude | 38000 |
| Route | ADADO UTEVO RAPET T843 VELIS MASEK T841 ERNEP |
| Aircraft | B738/M-VGDW/C |
Departure
| Time | 2026-05-06 18:37 |
|---|---|
| Airport | Kraków John Paul II International Airport (EPKK) |
Arrival
| Time | 2026-05-06 19:57 |
|---|---|
| Airport | Cologne Bonn Airport (EDDK) |
| Time | Latitude | Longitude | Altitude | Speed | Heading |
|---|---|---|---|---|---|
| 2026-05-06 18:06 | 50.07334 | 19.80207 | 801 ft | 0 kts | 166° |
| 2026-05-06 18:26 | 50.07335 | 19.80207 | 801 ft | 0 kts | 166° |
| 2026-05-06 18:27 | 50.07353 | 19.80199 | 801 ft | 2 kts | 166° |
| 2026-05-06 18:27 | 50.07367 | 19.80194 | 801 ft | 2 kts | 166° |
| 2026-05-06 18:27 | 50.07382 | 19.80188 | 801 ft | 2 kts | 166° |
| 2026-05-06 18:27 | 50.07391 | 19.80185 | 801 ft | 2 kts | 165° |
| 2026-05-06 18:28 | 50.07404 | 19.80173 | 801 ft | 2 kts | 135° |
| 2026-05-06 18:28 | 50.07411 | 19.80161 | 801 ft | 2 kts | 121° |
| 2026-05-06 18:28 | 50.07417 | 19.80132 | 801 ft | 2 kts | 90° |
| 2026-05-06 18:28 | 50.07416 | 19.80119 | 801 ft | 1 kts | 75° |
| 2026-05-06 18:29 | 50.07415 | 19.80112 | 801 ft | 0 kts | 78° |
| 2026-05-06 18:30 | 50.07417 | 19.80128 | 801 ft | 6 kts | 78° |
| 2026-05-06 18:31 | 50.07422 | 19.80171 | 801 ft | 0 kts | 79° |
| 2026-05-06 18:31 | 50.07423 | 19.80173 | 801 ft | 1 kts | 79° |
| 2026-05-06 18:32 | 50.07432 | 19.80247 | 801 ft | 10 kts | 79° |
| 2026-05-06 18:32 | 50.07452 | 19.80353 | 801 ft | 9 kts | 51° |
| 2026-05-06 18:32 | 50.07506 | 19.80396 | 801 ft | 8 kts | 18° |
| 2026-05-06 18:32 | 50.07556 | 19.80415 | 801 ft | 6 kts | 10° |
| 2026-05-06 18:33 | 50.07600 | 19.80418 | 801 ft | 5 kts | 353° |
| 2026-05-06 18:33 | 50.07634 | 19.80408 | 801 ft | 4 kts | 348° |
| 2026-05-06 18:33 | 50.07661 | 19.80398 | 801 ft | 3 kts | 346° |
| 2026-05-06 18:33 | 50.07683 | 19.80390 | 801 ft | 2 kts | 346° |
| 2026-05-06 18:34 | 50.07699 | 19.80383 | 801 ft | 2 kts | 346° |
| 2026-05-06 18:34 | 50.07703 | 19.80382 | 801 ft | 0 kts | 346° |
| 2026-05-06 18:35 | 50.07721 | 19.80374 | 801 ft | 4 kts | 346° |
| 2026-05-06 18:35 | 50.07781 | 19.80354 | 801 ft | 19 kts | 348° |
| 2026-05-06 18:35 | 50.07933 | 19.80307 | 801 ft | 17 kts | 348° |
| 2026-05-06 18:36 | 50.07995 | 19.80280 | 801 ft | 11 kts | 332° |
| 2026-05-06 18:36 | 50.08008 | 19.80183 | 801 ft | 5 kts | 258° |
| 2026-05-06 18:36 | 50.07981 | 19.79981 | 801 ft | 49 kts | 257° |
| 2026-05-06 18:36 | 50.07857 | 19.79107 | 801 ft | 115 kts | 258° |
| 2026-05-06 18:37 | 50.07648 | 19.77592 | 811 ft | 167 kts | 256° |
| 2026-05-06 18:37 | 50.07466 | 19.76378 | 1145 ft | 172 kts | 254° |
| 2026-05-06 18:37 | 50.07093 | 19.73987 | 2055 ft | 179 kts | 254° |
| 2026-05-06 18:37 | 50.06834 | 19.72086 | 2668 ft | 185 kts | 254° |
| 2026-05-06 18:38 | 50.06566 | 19.70129 | 3261 ft | 187 kts | 253° |
| 2026-05-06 18:38 | 50.06382 | 19.68811 | 3629 ft | 190 kts | 252° |
| 2026-05-06 18:38 | 50.05996 | 19.65945 | 4010 ft | 216 kts | 254° |
| 2026-05-06 18:38 | 50.05788 | 19.64360 | 4231 ft | 229 kts | 253° |
| 2026-05-06 18:39 | 50.05444 | 19.61867 | 4622 ft | 245 kts | 253° |
| 2026-05-06 18:39 | 50.05157 | 19.58345 | 5502 ft | 257 kts | 271° |
| 2026-05-06 18:39 | 50.05350 | 19.56537 | 6011 ft | 259 kts | 275° |
| 2026-05-06 18:40 | 50.06018 | 19.50098 | 7686 ft | 264 kts | 273° |
| 2026-05-06 18:40 | 50.06281 | 19.47248 | 8426 ft | 267 kts | 273° |
| 2026-05-06 18:40 | 50.06540 | 19.44432 | 9164 ft | 269 kts | 274° |
| 2026-05-06 18:40 | 50.06820 | 19.41493 | 9779 ft | 277 kts | 274° |
| 2026-05-06 18:41 | 50.07109 | 19.38478 | 10189 ft | 292 kts | 275° |
| 2026-05-06 18:41 | 50.07407 | 19.35287 | 10585 ft | 306 kts | 275° |
| 2026-05-06 18:41 | 50.07705 | 19.31938 | 10974 ft | 320 kts | 274° |
| 2026-05-06 18:41 | 50.08015 | 19.28435 | 11227 ft | 339 kts | 274° |
| 2026-05-06 18:42 | 50.08347 | 19.24801 | 11834 ft | 346 kts | 274° |
| 2026-05-06 18:42 | 50.08575 | 19.22308 | 12215 ft | 351 kts | 274° |
| 2026-05-06 18:42 | 50.09037 | 19.17256 | 13103 ft | 357 kts | 274° |
| 2026-05-06 18:42 | 50.09374 | 19.13473 | 13873 ft | 359 kts | 274° |
| 2026-05-06 18:43 | 50.09712 | 19.09606 | 14559 ft | 364 kts | 274° |
| 2026-05-06 18:43 | 50.10061 | 19.05717 | 15251 ft | 368 kts | 274° |
| 2026-05-06 18:43 | 50.10424 | 19.01776 | 16015 ft | 370 kts | 274° |
| 2026-05-06 18:43 | 50.10788 | 18.97791 | 16674 ft | 374 kts | 274° |
| 2026-05-06 18:44 | 50.11022 | 18.95150 | 17087 ft | 377 kts | 274° |
| 2026-05-06 18:44 | 50.11491 | 18.89718 | 17957 ft | 382 kts | 274° |
| 2026-05-06 18:44 | 50.11837 | 18.85622 | 18634 ft | 384 kts | 274° |
| 2026-05-06 18:44 | 50.12179 | 18.81519 | 19302 ft | 386 kts | 274° |
| 2026-05-06 18:45 | 50.12527 | 18.77378 | 19928 ft | 388 kts | 274° |
| 2026-05-06 18:45 | 50.12883 | 18.73214 | 20528 ft | 391 kts | 274° |
| 2026-05-06 18:45 | 50.13124 | 18.70426 | 20818 ft | 395 kts | 274° |
| 2026-05-06 18:45 | 50.13493 | 18.66226 | 21529 ft | 394 kts | 274° |
| 2026-05-06 18:46 | 50.13993 | 18.60558 | 22255 ft | 398 kts | 274° |
| 2026-05-06 18:46 | 50.14360 | 18.56285 | 22760 ft | 400 kts | 274° |
| 2026-05-06 18:46 | 50.14723 | 18.52031 | 23211 ft | 404 kts | 274° |
| 2026-05-06 18:46 | 50.15095 | 18.47702 | 23657 ft | 407 kts | 274° |
| 2026-05-06 18:47 | 50.15469 | 18.43311 | 24200 ft | 408 kts | 274° |
| 2026-05-06 18:47 | 50.15834 | 18.38917 | 24644 ft | 412 kts | 274° |
| 2026-05-06 18:47 | 50.16199 | 18.34547 | 25277 ft | 410 kts | 273° |
| 2026-05-06 18:47 | 50.16566 | 18.30100 | 25643 ft | 415 kts | 273° |
| 2026-05-06 18:48 | 50.16936 | 18.25639 | 26117 ft | 416 kts | 273° |
| 2026-05-06 18:48 | 50.17310 | 18.21205 | 26572 ft | 418 kts | 274° |
| 2026-05-06 18:48 | 50.17683 | 18.16671 | 26950 ft | 422 kts | 273° |
| 2026-05-06 18:48 | 50.17918 | 18.13709 | 27241 ft | 423 kts | 273° |
| 2026-05-06 18:49 | 50.18392 | 18.07618 | 27791 ft | 425 kts | 273° |
| 2026-05-06 18:49 | 50.18740 | 18.03072 | 28133 ft | 428 kts | 273° |
| 2026-05-06 18:49 | 50.18977 | 17.99952 | 28366 ft | 430 kts | 273° |
| 2026-05-06 18:49 | 50.19451 | 17.93782 | 28838 ft | 434 kts | 273° |
| 2026-05-06 18:50 | 50.19808 | 17.89107 | 29218 ft | 435 kts | 273° |
| 2026-05-06 18:50 | 50.20164 | 17.84472 | 29582 ft | 436 kts | 274° |
| 2026-05-06 18:50 | 50.20409 | 17.81311 | 29948 ft | 435 kts | 274° |
| 2026-05-06 18:50 | 50.20848 | 17.75182 | 30837 ft | 427 kts | 271° |
| 2026-05-06 18:51 | 50.20957 | 17.70581 | 31398 ft | 422 kts | 267° |
| 2026-05-06 18:51 | 50.20944 | 17.66085 | 32042 ft | 416 kts | 266° |
| 2026-05-06 18:51 | 50.20939 | 17.61619 | 32629 ft | 411 kts | 267° |
| 2026-05-06 18:51 | 50.20948 | 17.57112 | 32866 ft | 414 kts | 267° |
| 2026-05-06 18:52 | 50.20967 | 17.52698 | 33515 ft | 407 kts | 267° |
| 2026-05-06 18:52 | 50.21001 | 17.48301 | 33915 ft | 407 kts | 268° |
| 2026-05-06 18:52 | 50.21089 | 17.43964 | 34429 ft | 402 kts | 269° |
| 2026-05-06 18:52 | 50.21195 | 17.39635 | 34744 ft | 402 kts | 268° |
| 2026-05-06 18:53 | 50.21288 | 17.35274 | 35017 ft | 401 kts | 268° |
| 2026-05-06 18:53 | 50.21359 | 17.30916 | 35297 ft | 401 kts | 267° |
| 2026-05-06 18:53 | 50.21415 | 17.26618 | 35602 ft | 401 kts | 267° |
| 2026-05-06 18:53 | 50.21471 | 17.22257 | 35808 ft | 403 kts | 267° |
| 2026-05-06 18:54 | 50.21508 | 17.19618 | 35867 ft | 405 kts | 267° |
| 2026-05-06 18:54 | 50.21613 | 17.13450 | 36012 ft | 410 kts | 268° |
| 2026-05-06 18:54 | 50.21702 | 17.09057 | 36303 ft | 408 kts | 268° |
| 2026-05-06 18:54 | 50.21781 | 17.04665 | 36617 ft | 407 kts | 267° |
| 2026-05-06 18:55 | 50.21847 | 17.00224 | 36854 ft | 408 kts | 267° |
| 2026-05-06 18:55 | 50.21972 | 16.91394 | 37272 ft | 410 kts | 267° |
| 2026-05-06 18:55 | 50.22033 | 16.86979 | 37572 ft | 408 kts | 267° |
| 2026-05-06 18:56 | 50.22089 | 16.82505 | 37707 ft | 411 kts | 267° |
| 2026-05-06 18:56 | 50.22213 | 16.73517 | 37777 ft | 421 kts | 267° |
| 2026-05-06 18:57 | 50.22317 | 16.64370 | 37768 ft | 427 kts | 268° |
| 2026-05-06 18:57 | 50.22419 | 16.55130 | 37762 ft | 425 kts | 267° |
| 2026-05-06 18:58 | 50.22510 | 16.45975 | 37759 ft | 423 kts | 268° |
| 2026-05-06 18:58 | 50.22589 | 16.36876 | 37748 ft | 422 kts | 267° |
| 2026-05-06 18:59 | 50.22663 | 16.27692 | 37749 ft | 424 kts | 266° |
| 2026-05-06 18:59 | 50.22734 | 16.18524 | 37735 ft | 424 kts | 267° |
| 2026-05-06 19:00 | 50.22778 | 16.11063 | 37731 ft | 423 kts | 267° |
| 2026-05-06 19:00 | 50.22841 | 16.00407 | 37726 ft | 423 kts | 266° |
| 2026-05-06 19:01 | 50.22902 | 15.91223 | 37714 ft | 424 kts | 267° |
| 2026-05-06 19:01 | 50.22936 | 15.82005 | 37713 ft | 425 kts | 266° |
| 2026-05-06 19:02 | 50.22928 | 15.72802 | 37738 ft | 426 kts | 266° |
| 2026-05-06 19:02 | 50.22940 | 15.63611 | 37736 ft | 425 kts | 266° |
| 2026-05-06 19:03 | 50.22935 | 15.54402 | 37739 ft | 425 kts | 266° |
| 2026-05-06 19:03 | 50.22931 | 15.45189 | 37739 ft | 425 kts | 266° |
| 2026-05-06 19:04 | 50.22934 | 15.35971 | 37732 ft | 424 kts | 267° |
| 2026-05-06 19:04 | 50.22974 | 15.26836 | 37724 ft | 425 kts | 266° |
| 2026-05-06 19:05 | 50.22977 | 15.19116 | 37731 ft | 426 kts | 265° |
| 2026-05-06 19:05 | 50.22964 | 15.09913 | 37738 ft | 426 kts | 265° |
| 2026-05-06 19:06 | 50.22922 | 15.00656 | 37732 ft | 426 kts | 265° |
| 2026-05-06 19:06 | 50.22846 | 14.91449 | 37735 ft | 427 kts | 265° |
| 2026-05-06 19:07 | 50.22803 | 14.82216 | 37725 ft | 428 kts | 265° |
| 2026-05-06 19:07 | 50.22768 | 14.71421 | 37754 ft | 429 kts | 266° |
| 2026-05-06 19:08 | 50.22760 | 14.62058 | 37751 ft | 431 kts | 266° |
| 2026-05-06 19:08 | 50.22715 | 14.52798 | 37754 ft | 429 kts | 266° |
| 2026-05-06 19:09 | 50.22666 | 14.45089 | 37756 ft | 427 kts | 266° |
| 2026-05-06 19:09 | 50.22603 | 14.35786 | 37751 ft | 429 kts | 266° |
| 2026-05-06 19:10 | 50.22487 | 14.26498 | 37753 ft | 432 kts | 264° |
| 2026-05-06 19:10 | 50.22342 | 14.15599 | 37759 ft | 430 kts | 264° |
| 2026-05-06 19:11 | 50.22220 | 14.06282 | 37750 ft | 431 kts | 265° |
| 2026-05-06 19:11 | 50.22134 | 13.96896 | 37746 ft | 434 kts | 265° |
| 2026-05-06 19:12 | 50.22034 | 13.87505 | 37739 ft | 430 kts | 264° |
| 2026-05-06 19:12 | 50.21896 | 13.79808 | 37747 ft | 431 kts | 265° |
| 2026-05-06 19:13 | 50.21790 | 13.70383 | 37743 ft | 433 kts | 265° |
| 2026-05-06 19:13 | 50.21669 | 13.59475 | 37750 ft | 433 kts | 265° |
| 2026-05-06 19:14 | 50.21582 | 13.51609 | 37746 ft | 433 kts | 265° |
| 2026-05-06 19:14 | 50.21434 | 13.42217 | 37751 ft | 435 kts | 265° |
| 2026-05-06 19:15 | 50.21256 | 13.31214 | 37750 ft | 434 kts | 264° |
| 2026-05-06 19:15 | 50.21072 | 13.23369 | 37759 ft | 433 kts | 263° |
| 2026-05-06 19:16 | 50.20811 | 13.12407 | 37771 ft | 435 kts | 263° |
| 2026-05-06 19:16 | 50.20607 | 13.02949 | 37769 ft | 436 kts | 264° |
| 2026-05-06 19:17 | 50.20394 | 12.93551 | 37773 ft | 433 kts | 264° |
| 2026-05-06 19:17 | 50.20226 | 12.85664 | 37774 ft | 435 kts | 264° |
| 2026-05-06 19:18 | 50.20025 | 12.76212 | 37769 ft | 437 kts | 264° |
| 2026-05-06 19:18 | 50.19766 | 12.65227 | 37774 ft | 437 kts | 264° |
| 2026-05-06 19:19 | 50.20446 | 12.55745 | 37772 ft | 445 kts | 279° |
| 2026-05-06 19:19 | 50.21807 | 12.46340 | 37773 ft | 445 kts | 277° |
| 2026-05-06 19:20 | 50.23022 | 12.36870 | 37772 ft | 445 kts | 277° |
| 2026-05-06 19:20 | 50.24049 | 12.28961 | 37767 ft | 445 kts | 276° |
| 2026-05-06 19:21 | 50.25500 | 12.18087 | 37765 ft | 446 kts | 277° |
| 2026-05-06 19:21 | 50.26745 | 12.08575 | 37769 ft | 447 kts | 277° |
| 2026-05-06 19:22 | 50.27774 | 12.00682 | 37773 ft | 446 kts | 277° |
| 2026-05-06 19:22 | 50.28994 | 11.91174 | 37782 ft | 447 kts | 276° |
| 2026-05-06 19:23 | 50.30124 | 11.82196 | 37782 ft | 448 kts | 276° |
| 2026-05-06 19:23 | 50.31315 | 11.72700 | 37787 ft | 449 kts | 277° |
| 2026-05-06 19:24 | 50.32714 | 11.61571 | 37871 ft | 448 kts | 276° |
| 2026-05-06 19:24 | 50.33859 | 11.52010 | 37774 ft | 447 kts | 277° |
| 2026-05-06 19:25 | 50.35018 | 11.42527 | 37771 ft | 446 kts | 277° |
| 2026-05-06 19:25 | 50.36197 | 11.32990 | 37777 ft | 449 kts | 276° |
| 2026-05-06 19:26 | 50.37349 | 11.23386 | 37780 ft | 449 kts | 276° |
| 2026-05-06 19:26 | 50.38469 | 11.13823 | 37648 ft | 449 kts | 276° |
| 2026-05-06 19:26 | 50.39032 | 11.09027 | 37172 ft | 449 kts | 276° |
| 2026-05-06 19:27 | 50.39607 | 11.04167 | 36561 ft | 452 kts | 276° |
| 2026-05-06 19:27 | 50.40174 | 10.99357 | 35876 ft | 451 kts | 276° |
| 2026-05-06 19:27 | 50.40739 | 10.94543 | 35021 ft | 450 kts | 276° |
| 2026-05-06 19:27 | 50.41299 | 10.89808 | 34427 ft | 443 kts | 276° |
| 2026-05-06 19:28 | 50.41865 | 10.85087 | 33827 ft | 437 kts | 276° |
| 2026-05-06 19:28 | 50.42236 | 10.82030 | 33401 ft | 433 kts | 275° |
| 2026-05-06 19:28 | 50.42966 | 10.75890 | 32582 ft | 426 kts | 275° |
| 2026-05-06 19:28 | 50.43485 | 10.71390 | 32335 ft | 417 kts | 275° |
| 2026-05-06 19:29 | 50.44053 | 10.66951 | 32045 ft | 412 kts | 277° |
| 2026-05-06 19:29 | 50.44479 | 10.64069 | 31792 ft | 411 kts | 277° |
| 2026-05-06 19:29 | 50.45364 | 10.58260 | 31276 ft | 410 kts | 277° |
| 2026-05-06 19:29 | 50.45796 | 10.55355 | 31030 ft | 409 kts | 277° |
| 2026-05-06 19:30 | 50.46449 | 10.51165 | 30799 ft | 411 kts | 278° |
| 2026-05-06 19:30 | 50.47670 | 10.45446 | 30435 ft | 425 kts | 288° |
| 2026-05-06 19:30 | 50.48484 | 10.42643 | 30257 ft | 431 kts | 290° |
| 2026-05-06 19:30 | 50.49791 | 10.38326 | 29984 ft | 439 kts | 290° |
| 2026-05-06 19:31 | 50.51522 | 10.32457 | 29618 ft | 446 kts | 289° |
| 2026-05-06 19:31 | 50.52803 | 10.28046 | 29375 ft | 451 kts | 289° |
| 2026-05-06 19:31 | 50.55453 | 10.19082 | 28665 ft | 451 kts | 290° |
| 2026-05-06 19:32 | 50.56775 | 10.14680 | 28149 ft | 446 kts | 290° |
| 2026-05-06 19:32 | 50.58006 | 10.10574 | 27670 ft | 442 kts | 291° |
| 2026-05-06 19:32 | 50.59314 | 10.06236 | 27154 ft | 438 kts | 291° |
| 2026-05-06 19:32 | 50.60162 | 10.03429 | 26821 ft | 435 kts | 291° |
| 2026-05-06 19:33 | 50.61868 | 9.97705 | 26135 ft | 429 kts | 291° |
| 2026-05-06 19:33 | 50.63107 | 9.93500 | 25625 ft | 424 kts | 291° |
| 2026-05-06 19:33 | 50.64325 | 9.89323 | 25112 ft | 420 kts | 291° |
| 2026-05-06 19:33 | 50.65528 | 9.85193 | 24603 ft | 416 kts | 292° |
| 2026-05-06 19:34 | 50.66735 | 9.81073 | 24101 ft | 411 kts | 292° |
| 2026-05-06 19:34 | 50.67934 | 9.76982 | 23640 ft | 406 kts | 292° |
| 2026-05-06 19:34 | 50.69095 | 9.73007 | 23194 ft | 401 kts | 292° |
| 2026-05-06 19:34 | 50.70241 | 9.69064 | 22743 ft | 396 kts | 292° |
| 2026-05-06 19:35 | 50.71383 | 9.65123 | 22291 ft | 391 kts | 292° |
| 2026-05-06 19:35 | 50.72496 | 9.61290 | 21851 ft | 386 kts | 292° |
| 2026-05-06 19:35 | 50.73633 | 9.57493 | 21409 ft | 381 kts | 294° |
| 2026-05-06 19:35 | 50.74823 | 9.53810 | 21026 ft | 375 kts | 295° |
| 2026-05-06 19:36 | 50.76010 | 9.50167 | 20692 ft | 369 kts | 295° |
| 2026-05-06 19:36 | 50.77157 | 9.46585 | 20359 ft | 367 kts | 295° |
| 2026-05-06 19:36 | 50.78302 | 9.42984 | 20018 ft | 367 kts | 295° |
| 2026-05-06 19:36 | 50.79390 | 9.39352 | 19692 ft | 364 kts | 289° |
| 2026-05-06 19:37 | 50.80064 | 9.35531 | 19365 ft | 359 kts | 281° |
| 2026-05-06 19:37 | 50.80576 | 9.31703 | 19031 ft | 357 kts | 281° |
| 2026-05-06 19:37 | 50.81153 | 9.27899 | 18701 ft | 356 kts | 282° |
| 2026-05-06 19:37 | 50.81562 | 9.25342 | 18485 ft | 355 kts | 282° |
| 2026-05-06 19:38 | 50.82362 | 9.20331 | 18281 ft | 357 kts | 282° |
| 2026-05-06 19:38 | 50.82975 | 9.16509 | 18135 ft | 360 kts | 282° |
| 2026-05-06 19:38 | 50.83601 | 9.12656 | 17985 ft | 363 kts | 283° |
| 2026-05-06 19:38 | 50.84238 | 9.08764 | 17839 ft | 365 kts | 283° |
| 2026-05-06 19:39 | 50.84872 | 9.04881 | 17695 ft | 368 kts | 283° |
| 2026-05-06 19:39 | 50.85505 | 9.00967 | 17543 ft | 370 kts | 283° |
| 2026-05-06 19:39 | 50.86143 | 8.97023 | 17400 ft | 372 kts | 283° |
| 2026-05-06 19:39 | 50.86789 | 8.93052 | 17248 ft | 374 kts | 283° |
| 2026-05-06 19:40 | 50.87437 | 8.89064 | 17091 ft | 373 kts | 283° |
| 2026-05-06 19:40 | 50.88077 | 8.85096 | 16949 ft | 372 kts | 283° |
| 2026-05-06 19:40 | 50.88706 | 8.81179 | 16804 ft | 370 kts | 283° |
| 2026-05-06 19:40 | 50.89344 | 8.77216 | 16657 ft | 370 kts | 283° |
| 2026-05-06 19:41 | 50.89972 | 8.73295 | 16505 ft | 369 kts | 283° |
| 2026-05-06 19:41 | 50.90599 | 8.69340 | 16356 ft | 369 kts | 283° |
| 2026-05-06 19:41 | 50.91217 | 8.65438 | 16205 ft | 368 kts | 283° |
| 2026-05-06 19:41 | 50.91846 | 8.61478 | 16058 ft | 368 kts | 283° |
| 2026-05-06 19:42 | 50.92465 | 8.57584 | 15908 ft | 366 kts | 283° |
| 2026-05-06 19:42 | 50.93026 | 8.54043 | 15774 ft | 366 kts | 283° |
| 2026-05-06 19:42 | 50.93473 | 8.51224 | 15606 ft | 365 kts | 283° |
| 2026-05-06 19:42 | 50.94288 | 8.46120 | 15209 ft | 353 kts | 284° |
| 2026-05-06 19:43 | 50.94880 | 8.42411 | 14905 ft | 344 kts | 284° |
| 2026-05-06 19:43 | 50.95453 | 8.38793 | 14607 ft | 336 kts | 284° |
| 2026-05-06 19:43 | 50.96012 | 8.35254 | 14314 ft | 329 kts | 284° |
| 2026-05-06 19:43 | 50.96551 | 8.31761 | 14011 ft | 323 kts | 281° |
| 2026-05-06 19:44 | 50.96685 | 8.28250 | 13707 ft | 316 kts | 263° |
| 2026-05-06 19:44 | 50.96359 | 8.26020 | 13508 ft | 313 kts | 250° |
| 2026-05-06 19:44 | 50.95097 | 8.21919 | 13113 ft | 307 kts | 243° |
| 2026-05-06 19:44 | 50.94128 | 8.18966 | 12819 ft | 303 kts | 244° |
| 2026-05-06 19:45 | 50.93180 | 8.16012 | 12520 ft | 298 kts | 244° |
| 2026-05-06 19:45 | 50.92554 | 8.14089 | 12321 ft | 296 kts | 244° |
| 2026-05-06 19:45 | 50.91295 | 8.10271 | 11919 ft | 291 kts | 244° |
| 2026-05-06 19:45 | 50.90367 | 8.07459 | 11658 ft | 288 kts | 244° |
| 2026-05-06 19:46 | 50.89434 | 8.04630 | 11342 ft | 289 kts | 244° |
| 2026-05-06 19:46 | 50.88504 | 8.01825 | 11040 ft | 286 kts | 244° |
| 2026-05-06 19:46 | 50.87589 | 7.99071 | 10943 ft | 282 kts | 244° |
| 2026-05-06 19:46 | 50.86676 | 7.96314 | 10736 ft | 290 kts | 244° |
| 2026-05-06 19:47 | 50.85737 | 7.93478 | 10389 ft | 289 kts | 244° |
| 2026-05-06 19:47 | 50.84819 | 7.90728 | 10074 ft | 286 kts | 244° |
| 2026-05-06 19:47 | 50.84199 | 7.88884 | 9865 ft | 284 kts | 244° |
| 2026-05-06 19:47 | 50.82966 | 7.85189 | 9456 ft | 283 kts | 244° |
| 2026-05-06 19:48 | 50.82053 | 7.82448 | 9147 ft | 282 kts | 244° |
| 2026-05-06 19:48 | 50.81147 | 7.79743 | 8843 ft | 280 kts | 244° |
| 2026-05-06 19:48 | 50.80228 | 7.77004 | 8497 ft | 280 kts | 244° |
| 2026-05-06 19:48 | 50.79330 | 7.74322 | 8161 ft | 279 kts | 244° |
| 2026-05-06 19:49 | 50.78457 | 7.71611 | 7757 ft | 279 kts | 248° |
| 2026-05-06 19:49 | 50.77673 | 7.68788 | 7349 ft | 280 kts | 249° |
| 2026-05-06 19:49 | 50.76900 | 7.65986 | 6945 ft | 281 kts | 249° |
| 2026-05-06 19:49 | 50.76120 | 7.63182 | 6558 ft | 280 kts | 249° |
| 2026-05-06 19:50 | 50.75345 | 7.60391 | 6337 ft | 273 kts | 249° |
| 2026-05-06 19:50 | 50.74567 | 7.57669 | 6133 ft | 267 kts | 248° |
| 2026-05-06 19:50 | 50.73815 | 7.55076 | 6016 ft | 258 kts | 249° |
| 2026-05-06 19:50 | 50.73092 | 7.52529 | 5901 ft | 250 kts | 249° |
| 2026-05-06 19:51 | 50.72386 | 7.50082 | 5749 ft | 244 kts | 249° |
| 2026-05-06 19:51 | 50.71692 | 7.47678 | 5660 ft | 234 kts | 249° |
| 2026-05-06 19:51 | 50.71026 | 7.45403 | 5564 ft | 221 kts | 248° |
| 2026-05-06 19:51 | 50.70575 | 7.43189 | 5453 ft | 204 kts | 270° |
| 2026-05-06 19:52 | 50.70721 | 7.41079 | 5268 ft | 192 kts | 284° |
| 2026-05-06 19:52 | 50.70985 | 7.39027 | 4935 ft | 190 kts | 287° |
| 2026-05-06 19:52 | 50.71494 | 7.37161 | 4589 ft | 185 kts | 311° |
| 2026-05-06 19:52 | 50.72344 | 7.35747 | 4388 ft | 173 kts | 317° |
| 2026-05-06 19:53 | 50.73169 | 7.34350 | 3948 ft | 174 kts | 317° |
| 2026-05-06 19:53 | 50.74039 | 7.33056 | 3485 ft | 170 kts | 319° |
| 2026-05-06 19:53 | 50.74886 | 7.31826 | 3173 ft | 158 kts | 321° |
| 2026-05-06 19:53 | 50.75690 | 7.30678 | 2999 ft | 158 kts | 320° |
| 2026-05-06 19:54 | 50.76500 | 7.29511 | 2788 ft | 158 kts | 320° |
| 2026-05-06 19:54 | 50.77302 | 7.28356 | 2566 ft | 156 kts | 321° |
| 2026-05-06 19:54 | 50.78111 | 7.27203 | 2347 ft | 157 kts | 320° |
| 2026-05-06 19:54 | 50.78908 | 7.26058 | 2130 ft | 156 kts | 320° |
| 2026-05-06 19:55 | 50.79719 | 7.24888 | 1909 ft | 156 kts | 320° |
| 2026-05-06 19:55 | 50.80522 | 7.23741 | 1693 ft | 156 kts | 320° |
| 2026-05-06 19:55 | 50.81323 | 7.22587 | 1484 ft | 150 kts | 320° |
| 2026-05-06 19:55 | 50.82074 | 7.21510 | 1276 ft | 146 kts | 319° |
| 2026-05-06 19:56 | 50.82827 | 7.20427 | 1076 ft | 146 kts | 319° |
| 2026-05-06 19:56 | 50.83574 | 7.19352 | 877 ft | 146 kts | 318° |
| 2026-05-06 19:56 | 50.84321 | 7.18276 | 679 ft | 146 kts | 318° |
| 2026-05-06 19:56 | 50.85067 | 7.17201 | 484 ft | 145 kts | 318° |
| 2026-05-06 19:57 | 50.85833 | 7.16109 | 313 ft | 148 kts | 318° |
| 2026-05-06 19:57 | 50.86525 | 7.15108 | 275 ft | 115 kts | 318° |
| 2026-05-06 19:57 | 50.86998 | 7.14420 | 258 ft | 72 kts | 319° |
| 2026-05-06 19:57 | 50.87265 | 7.13997 | 248 ft | 42 kts | 298° |
| 2026-05-06 19:58 | 50.87326 | 7.13650 | 244 ft | 25 kts | 279° |
| 2026-05-06 19:58 | 50.87384 | 7.13414 | 243 ft | 20 kts | 311° |
| 2026-05-06 19:58 | 50.87481 | 7.13268 | 244 ft | 18 kts | 317° |
| 2026-05-06 19:58 | 50.87573 | 7.13134 | 244 ft | 16 kts | 317° |
| 2026-05-06 19:59 | 50.87651 | 7.13021 | 246 ft | 13 kts | 317° |
| 2026-05-06 19:59 | 50.87711 | 7.12934 | 247 ft | 9 kts | 317° |
| 2026-05-06 19:59 | 50.87731 | 7.12906 | 247 ft | 0 kts | 317° |
| 2026-05-06 20:00 | 50.87735 | 7.12899 | 247 ft | 3 kts | 316° |
| 2026-05-06 20:00 | 50.87784 | 7.12816 | 247 ft | 9 kts | 294° |
| 2026-05-06 20:00 | 50.87787 | 7.12712 | 247 ft | 9 kts | 279° |
| 2026-05-06 20:00 | 50.87840 | 7.12618 | 246 ft | 14 kts | 342° |
| 2026-05-06 20:01 | 50.87932 | 7.12640 | 245 ft | 12 kts | 27° |
| 2026-05-06 20:01 | 50.88009 | 7.12610 | 243 ft | 13 kts | 317° |
| 2026-05-06 20:01 | 50.88088 | 7.12493 | 242 ft | 17 kts | 316° |
| 2026-05-06 20:01 | 50.88152 | 7.12371 | 238 ft | 12 kts | 286° |
| 2026-05-06 20:02 | 50.88160 | 7.12238 | 233 ft | 12 kts | 297° |
| 2026-05-06 20:02 | 50.88196 | 7.12155 | 230 ft | 13 kts | 305° |
| 2026-05-06 20:02 | 50.88272 | 7.11998 | 227 ft | 14 kts | 310° |
| 2026-05-06 20:02 | 50.88311 | 7.11868 | 227 ft | 11 kts | 268° |
| 2026-05-06 20:03 | 50.88290 | 7.11749 | 224 ft | 8 kts | 245° |
| 2026-05-06 20:03 | 50.88256 | 7.11684 | 223 ft | 5 kts | 245° |
| 2026-05-06 20:03 | 50.88263 | 7.11623 | 222 ft | 4 kts | 285° |
| 2026-05-06 20:03 | 50.88267 | 7.11597 | 222 ft | 0 kts | 285° |